Peabody, MA (01960)

2:41 PM EST on December 08, 2016 (GMT -0500)
Central Peabody | | Change Station

Elev 92 ft 42.53 °N, 70.94 °W | Updated 32 seconds ago

Overcast
Overcast
41.2 °F
Feels Like 41 °F
N
2.0
Wind Variable Wind from WNW
Gusts 9.0 mph

Today
High -- | Low -- °F
--% Chance of Precip.
Yesterday
High -- | Low -- °F
Precip. -- in
Pressure 29.77 in
Visibility 10.0 miles
Clouds Few 8000 ft
Mostly Cloudy 10000 ft
Windchill 41 °F
Dew Point 30 °F
Humidity 65%
Rainfall 0.00 in
Snow Depth Not available.
7:01 AM 4:10 PM
Waxing Gibbous, 66% visible
METAR KBVY 081853Z 28006KT 10SM FEW080 BKN100 06/M01 A2977 RMK AO2 SLP079 T00561011
Pressure 29.77 in
Visibility 10.0 miles
Clouds Few 8000 ft
Mostly Cloudy 10000 ft
Windchill 41 °F
Dew Point 30 °F
Humidity 65%
Rainfall 0.00 in
Snow Depth Not available.
7:01 AM 4:10 PM
Waxing Gibbous, 66% visible
METAR KBVY 081853Z 28006KT 10SM FEW080 BKN100 06/M01 A2977 RMK AO2 SLP079 T00561011

10-Day Weather Forecast

Almanac

Astronomy

Dec. 08, 2016 Rise Set
Actual Time
Civil Twilight
Nautical Twilight
Astronomical Twilight
Moon
Length of Visible Light
Length of Day
Tomorrow will be .
, % of the Moon is Illuminated

Today's Extremes

State Highs State Lows

Community

WunderPhotos

Upload Photos

1,956,277 photos uploaded!

WunderBlog® & News

Nearby

Air Quality

  Air Quality AQ Index Pollutant
Not available.

Snow Depth

Station Depth Elevation

Earthquake Activity

City Distance Mag. Time & Date
Minimum magnitude displayed is 2.5.

Coastal Water Temperatures

Place Temperature

Stations

Nearby Weather Stations

Station Location Temp. Windchill Dew Point Humidity Wind Precip. Elev Updated Type
                   

Watches & Warnings

There are currently no watches in effect.